createdAt,value
2024-01-18T00:00:40.324Z,35.90
2024-01-18T00:03:42.951Z,33.38
2024-01-18T00:06:45.393Z,37.10
2024-01-18T00:09:49.018Z,37.88
2024-01-18T00:12:51.409Z,41.50
2024-01-18T00:15:53.761Z,34.95
2024-01-18T00:18:57.194Z,37.65
2024-01-18T00:22:00.312Z,37.53
2024-01-18T00:25:04.426Z,38.00
2024-01-18T00:28:06.890Z,39.00
2024-01-18T00:31:09.224Z,33.92
2024-01-18T00:34:11.488Z,32.88
2024-01-18T00:37:17.604Z,39.58
2024-01-18T00:40:21.232Z,29.95
2024-01-18T00:43:23.543Z,34.22
2024-01-18T00:46:25.846Z,44.97
2024-01-18T00:49:31.085Z,37.92
2024-01-18T00:52:33.425Z,31.60
2024-01-18T00:55:37.210Z,36.20
2024-01-18T00:58:41.875Z,39.78
2024-01-18T01:01:44.264Z,37.78
2024-01-18T01:04:46.721Z,39.58
2024-01-18T01:07:49.141Z,34.22
2024-01-18T01:10:52.736Z,30.20
2024-01-18T01:13:54.969Z,32.28
2024-01-18T01:16:57.280Z,38.30
2024-01-18T01:20:01.768Z,31.65
2024-01-18T01:23:05.767Z,35.63
2024-01-18T01:26:12.240Z,32.65
2024-01-18T01:29:16.058Z,31.70
2024-01-18T01:32:18.286Z,34.70
2024-01-18T01:35:20.542Z,32.50
2024-01-18T01:38:22.778Z,29.35
2024-01-18T01:41:26.346Z,30.90
2024-01-18T01:44:28.625Z,34.30
2024-01-18T01:47:31.036Z,37.13
2024-01-18T01:50:34.545Z,32.65
2024-01-18T01:53:36.894Z,31.20
2024-01-18T01:56:40.620Z,35.45
2024-01-18T01:59:42.885Z,31.80
2024-01-18T02:02:45.948Z,35.42
2024-01-18T02:05:48.191Z,32.28
2024-01-18T02:08:50.443Z,34.53
2024-01-18T02:11:54.121Z,39.28
2024-01-18T02:14:56.635Z,34.45
2024-01-18T02:17:59.132Z,28.90
2024-01-18T02:21:01.449Z,35.40
2024-01-18T02:24:11.181Z,27.05
2024-01-18T02:27:14.962Z,27.45
2024-01-18T02:30:17.336Z,33.42
2024-01-18T02:33:19.879Z,31.45
2024-01-18T02:36:22.553Z,35.35
2024-01-18T02:39:25.396Z,31.95
2024-01-18T02:42:29.150Z,33.33
2024-01-18T02:45:31.515Z,29.58
2024-01-18T02:48:33.969Z,30.35
2024-01-18T02:51:36.375Z,37.70
2024-01-18T02:54:41.562Z,34.45
2024-01-18T02:57:45.376Z,35.20
2024-01-18T03:00:48.620Z,34.28
2024-01-18T03:03:51.138Z,35.65
2024-01-18T03:06:53.550Z,36.50
2024-01-18T03:09:55.886Z,35.35
2024-01-18T03:12:59.441Z,36.20
2024-01-18T03:16:01.908Z,34.38
2024-01-18T03:19:04.175Z,31.42
2024-01-18T03:22:06.513Z,34.47
2024-01-18T03:25:09.432Z,34.85
2024-01-18T03:28:13.079Z,36.03
2024-01-18T03:31:15.408Z,31.00
2024-01-18T03:34:17.920Z,37.60
2024-01-18T03:37:20.222Z,35.35
2024-01-18T03:40:23.188Z,33.28
2024-01-18T03:43:26.823Z,38.63
2024-01-18T03:46:29.115Z,33.17
2024-01-18T03:49:31.548Z,37.58
2024-01-18T03:52:33.895Z,36.13
2024-01-18T03:55:36.262Z,36.90
2024-01-18T03:58:40.597Z,34.08
2024-01-18T04:01:44.316Z,32.67
2024-01-18T04:04:46.702Z,38.15
2024-01-18T04:07:48.960Z,44.78
2024-01-18T04:10:52.086Z,34.83
2024-01-18T04:13:55.633Z,36.72
2024-01-18T04:16:58.009Z,36.47
2024-01-18T04:20:00.689Z,34.80
2024-01-18T04:23:03.050Z,40.08
2024-01-18T04:26:05.326Z,39.72
2024-01-18T04:29:08.955Z,34.25
2024-01-18T04:32:11.293Z,33.10
2024-01-18T04:35:13.817Z,40.90
2024-01-18T04:38:16.113Z,35.00
2024-01-18T04:41:18.459Z,37.30
2024-01-18T04:44:21.988Z,39.50
2024-01-18T04:47:24.409Z,39.90
2024-01-18T04:50:27.206Z,31.80
2024-01-18T04:53:29.424Z,38.33
2024-01-18T04:56:36.749Z,39.95
2024-01-18T04:59:40.714Z,45.38
2024-01-18T05:02:43.072Z,41.22
2024-01-18T05:05:45.740Z,42.58
2024-01-18T05:08:48.514Z,43.63
2024-01-18T05:11:52.950Z,41.70
2024-01-18T05:14:57.430Z,41.78
2024-01-18T05:18:01.819Z,41.88
2024-01-18T05:21:04.891Z,42.05
2024-01-18T05:24:07.348Z,41.72
2024-01-18T05:27:10.291Z,44.25
2024-01-18T05:30:14.831Z,40.88
2024-01-18T05:33:17.182Z,44.55
2024-01-18T05:36:19.552Z,41.55
2024-01-18T05:39:21.952Z,44.70
2024-01-18T05:42:24.723Z,41.97
2024-01-18T05:45:28.437Z,45.75
2024-01-18T05:48:30.766Z,50.53
2024-01-18T05:51:33.182Z,43.85
2024-01-18T05:54:35.726Z,43.88
2024-01-18T05:57:40.901Z,42.42
2024-01-18T06:00:44.736Z,40.65
2024-01-18T06:03:47.369Z,43.90
2024-01-18T06:06:51.188Z,49.20
2024-01-18T06:09:53.541Z,47.22
2024-01-18T06:12:55.726Z,46.17
2024-01-18T06:15:59.960Z,43.90
2024-01-18T06:19:02.300Z,50.60
2024-01-18T06:22:04.800Z,46.80
2024-01-18T06:25:07.776Z,50.15
2024-01-18T06:28:11.827Z,46.70
2024-01-18T06:31:15.746Z,50.15
2024-01-18T06:34:18.921Z,49.88
2024-01-18T06:37:21.389Z,60.95
2024-01-18T06:40:23.932Z,54.50
2024-01-18T06:43:26.489Z,48.20
2024-01-18T06:46:30.842Z,45.22
2024-01-18T06:49:33.331Z,49.67
2024-01-18T06:52:35.704Z,45.85
2024-01-18T06:55:41.544Z,54.78
2024-01-18T06:58:45.269Z,45.72
2024-01-18T07:01:49.036Z,44.92
2024-01-18T07:04:51.478Z,48.47
2024-01-18T07:07:53.990Z,48.33
2024-01-18T07:10:56.647Z,46.63
2024-01-18T07:13:58.978Z,44.08
2024-01-18T07:17:02.930Z,45.05
2024-01-18T07:20:08.131Z,49.13
2024-01-18T07:23:10.414Z,42.85
2024-01-18T07:26:14.980Z,35.20
2024-01-18T07:29:20.116Z,46.60
2024-01-18T07:32:24.520Z,49.15
2024-01-18T07:35:27.180Z,43.47
2024-01-18T07:38:29.909Z,46.35
2024-01-18T07:41:32.326Z,44.30
2024-01-18T07:44:40.763Z,43.67
2024-01-18T07:47:47.375Z,43.47
2024-01-18T07:50:49.936Z,47.00
2024-01-18T07:53:52.573Z,43.85
2024-01-18T07:56:56.360Z,49.53
2024-01-18T07:59:58.679Z,43.65
2024-01-18T08:03:04.260Z,45.83
2024-01-18T08:06:08.035Z,47.95
2024-01-18T08:09:13.938Z,39.92
2024-01-18T08:12:16.602Z,50.08
2024-01-18T08:15:19.455Z,46.20
2024-01-18T08:18:23.237Z,44.25
2024-01-18T08:21:25.759Z,50.47
2024-01-18T08:24:27.973Z,47.88
2024-01-18T08:27:30.550Z,47.40
2024-01-18T08:30:33.049Z,47.17
2024-01-18T08:33:36.946Z,43.83
2024-01-18T08:36:39.625Z,45.55
2024-01-18T08:39:42.206Z,43.30
2024-01-18T08:42:47.038Z,46.65
2024-01-18T08:45:49.766Z,44.17
2024-01-18T08:48:56.338Z,42.70
2024-01-18T08:51:58.807Z,45.83
2024-01-18T08:55:01.187Z,46.00
2024-01-18T08:58:04.013Z,44.92
2024-01-18T09:01:06.586Z,38.63
2024-01-18T09:04:10.541Z,38.13
2024-01-18T09:07:13.024Z,37.05
2024-01-18T09:10:17.706Z,40.53
2024-01-18T09:13:21.874Z,36.67
2024-01-18T09:16:24.255Z,35.28
2024-01-18T09:19:28.109Z,35.10
2024-01-18T09:22:32.726Z,33.42
2024-01-18T09:25:35.116Z,36.13
2024-01-18T09:28:42.056Z,39.15
2024-01-18T09:31:44.456Z,31.55
2024-01-18T09:34:49.424Z,30.90
2024-01-18T09:37:52.214Z,30.83
2024-01-18T09:40:59.959Z,31.13
2024-01-18T09:44:13.230Z,29.10
2024-01-18T09:47:21.823Z,30.00
2024-01-18T09:50:28.179Z,29.83
2024-01-18T09:53:30.641Z,29.95
2024-01-18T09:56:37.170Z,32.28
2024-01-18T09:59:43.715Z,33.10
2024-01-18T10:03:07.184Z,27.83
2024-01-18T10:06:20.950Z,28.05
2024-01-18T10:09:23.512Z,29.20
2024-01-18T10:12:30.311Z,30.58
2024-01-18T10:15:36.866Z,30.58
2024-01-18T10:18:39.328Z,28.50
2024-01-18T10:21:43.153Z,30.67
2024-01-18T10:24:49.139Z,24.33
2024-01-18T10:27:52.806Z,27.23
2024-01-18T10:30:55.298Z,29.10
2024-01-18T10:33:57.992Z,25.50
2024-01-18T10:37:01.781Z,27.48
2024-01-18T10:40:05.677Z,27.88
2024-01-18T10:43:09.595Z,29.40
2024-01-18T10:46:12.387Z,31.85
2024-01-18T10:49:15.384Z,38.78
2024-01-18T10:52:22.285Z,32.78
2024-01-18T10:55:24.884Z,33.70
2024-01-18T10:58:29.549Z,30.42
2024-01-18T11:01:32.403Z,33.70
2024-01-18T11:04:35.079Z,34.50
2024-01-18T11:07:39.391Z,33.88
2024-01-18T11:10:42.422Z,37.30
2024-01-18T11:13:44.988Z,35.00
2024-01-18T11:16:47.283Z,36.05
2024-01-18T11:19:51.222Z,33.42
2024-01-18T11:22:59.819Z,35.22
2024-01-18T11:26:02.715Z,39.35
2024-01-18T11:29:18.917Z,35.22
2024-01-18T11:32:21.941Z,38.22
2024-01-18T11:35:25.154Z,32.72
2024-01-18T11:38:35.162Z,30.80
2024-01-18T11:41:37.813Z,34.90
2024-01-18T11:44:49.835Z,42.72
2024-01-18T11:50:54.453Z,32.90
2024-01-18T11:53:59.735Z,32.25
2024-01-18T11:57:03.749Z,31.75
2024-01-18T12:00:09.665Z,37.22
2024-01-18T12:03:14.746Z,30.35
2024-01-18T12:06:18.188Z,30.95
2024-01-18T12:09:23.950Z,34.88
2024-01-18T12:12:26.328Z,30.92
2024-01-18T12:15:29.684Z,25.70
2024-01-18T12:18:39.466Z,26.30
2024-01-18T12:21:44.700Z,25.88
2024-01-18T12:24:52.898Z,25.73
2024-01-18T12:27:55.273Z,22.63
2024-01-18T12:31:02.674Z,23.40
2024-01-18T12:34:05.455Z,23.10
2024-01-18T12:37:13.683Z,21.20
2024-01-18T12:40:26.676Z,25.98
2024-01-18T12:43:28.969Z,20.77
2024-01-18T12:46:31.697Z,28.45
2024-01-18T12:49:35.028Z,26.17
2024-01-18T12:52:38.011Z,24.08
2024-01-18T12:55:42.115Z,30.42
2024-01-18T12:58:46.174Z,34.25
2024-01-18T13:01:50.190Z,35.08
2024-01-18T13:04:54.421Z,37.42
2024-01-18T13:07:57.109Z,32.05
2024-01-18T13:11:04.603Z,24.10
2024-01-18T13:14:07.986Z,20.88
2024-01-18T13:17:16.874Z,21.50
2024-01-18T13:20:19.384Z,19.90
2024-01-18T13:23:21.861Z,19.13
2024-01-18T13:26:25.767Z,21.45
2024-01-18T13:29:28.343Z,20.52
2024-01-18T13:32:40.118Z,19.05
2024-01-18T13:35:42.493Z,18.55
2024-01-18T13:38:44.880Z,21.30
2024-01-18T13:41:48.973Z,16.55
2024-01-18T13:44:51.204Z,22.60
2024-01-18T13:47:53.505Z,18.10
2024-01-18T13:50:58.890Z,22.55
2024-01-18T13:54:01.334Z,20.05
2024-01-18T13:57:05.184Z,24.67
2024-01-18T14:00:10.687Z,27.30
2024-01-18T14:03:16.303Z,23.63
2024-01-18T14:06:20.897Z,24.10
2024-01-18T14:09:23.615Z,25.10
2024-01-18T14:12:27.275Z,23.15
2024-01-18T14:15:31.318Z,22.17
2024-01-18T14:18:33.936Z,25.83
2024-01-18T14:21:36.565Z,23.55
2024-01-18T14:24:39.048Z,37.25
2024-01-18T14:27:43.297Z,22.20
2024-01-18T14:30:45.823Z,25.88
2024-01-18T14:33:48.825Z,28.27
2024-01-18T14:36:53.053Z,23.38
2024-01-18T14:39:55.520Z,21.27
2024-01-18T14:43:02.285Z,21.27
2024-01-18T14:46:05.321Z,22.10
2024-01-18T14:49:08.312Z,24.35
2024-01-18T14:52:12.004Z,22.00
2024-01-18T14:55:16.002Z,26.65
2024-01-18T14:58:19.755Z,22.05
2024-01-18T15:01:22.066Z,19.63
2024-01-18T15:04:24.628Z,24.42
2024-01-18T15:07:27.019Z,26.48
2024-01-18T15:10:31.954Z,21.02
2024-01-18T15:13:38.726Z,22.80
2024-01-18T15:16:41.015Z,23.00
2024-01-18T15:19:43.512Z,17.27
2024-01-18T15:22:45.879Z,20.63
2024-01-18T15:25:49.028Z,19.80
2024-01-18T15:28:53.123Z,16.98
2024-01-18T15:31:55.409Z,20.50
2024-01-18T15:34:59.100Z,28.25
2024-01-18T15:38:01.376Z,21.80
2024-01-18T15:41:04.348Z,18.98
2024-01-18T15:44:08.109Z,20.58
2024-01-18T15:47:14.862Z,23.20
2024-01-18T15:50:18.771Z,19.23
2024-01-18T15:53:21.462Z,21.60
2024-01-18T15:56:24.053Z,22.05
2024-01-18T15:59:27.633Z,22.35
2024-01-18T16:02:31.481Z,22.27
2024-01-18T16:05:33.812Z,27.98
2024-01-18T16:08:36.668Z,26.27
2024-01-18T16:11:38.953Z,19.95
2024-01-18T16:14:47.430Z,20.83
2024-01-18T16:17:49.911Z,24.98
2024-01-18T16:20:52.603Z,22.73
2024-01-18T16:23:56.552Z,25.35
2024-01-18T16:27:00.031Z,23.95
2024-01-18T16:30:09.609Z,23.13
2024-01-18T16:33:19.357Z,21.48
2024-01-18T16:36:22.653Z,23.65
2024-01-18T16:39:26.021Z,25.27
2024-01-18T16:42:28.410Z,22.80
2024-01-18T16:45:34.405Z,25.17
2024-01-18T16:48:37.058Z,32.45
2024-01-18T16:51:39.560Z,27.02
2024-01-18T16:54:44.156Z,25.30
2024-01-18T17:00:52.220Z,28.40
2024-01-18T17:03:54.642Z,27.40
2024-01-18T17:06:57.218Z,28.73
2024-01-18T17:10:01.987Z,28.38
2024-01-18T17:13:04.988Z,30.77
2024-01-18T17:16:08.733Z,36.00
2024-01-18T17:19:11.010Z,31.65
2024-01-18T17:22:13.433Z,28.80
2024-01-18T17:25:15.824Z,28.42
2024-01-18T17:28:18.163Z,33.85
2024-01-18T17:31:23.234Z,33.42
2024-01-18T17:34:25.661Z,30.52
2024-01-18T17:37:27.957Z,28.30
2024-01-18T17:40:30.272Z,28.70
2024-01-18T17:43:32.510Z,29.15
2024-01-18T17:46:44.366Z,25.38
2024-01-18T17:49:48.349Z,29.30
2024-01-18T17:52:53.075Z,30.77
2024-01-18T17:55:59.404Z,28.27
2024-01-18T17:59:02.199Z,28.25
2024-01-18T18:02:10.039Z,35.60
2024-01-18T18:05:12.998Z,26.83
2024-01-18T18:08:18.052Z,29.42
2024-01-18T18:11:20.467Z,25.27
2024-01-18T18:14:22.828Z,33.92
2024-01-18T18:17:26.624Z,31.88
2024-01-18T18:20:30.429Z,32.58
2024-01-18T18:23:35.577Z,29.80
2024-01-18T18:26:37.961Z,29.95
2024-01-18T18:29:40.362Z,31.35
2024-01-18T18:32:44.097Z,30.15
2024-01-18T18:35:46.515Z,28.20
2024-01-18T18:38:49.143Z,29.40
2024-01-18T18:41:51.679Z,30.75
2024-01-18T18:44:53.942Z,30.30
2024-01-18T18:47:57.597Z,35.58
2024-01-18T18:51:00.899Z,31.23
2024-01-18T18:54:03.427Z,27.00
2024-01-18T18:57:05.948Z,29.42
2024-01-18T19:00:09.070Z,25.98
2024-01-18T19:03:12.695Z,29.27
2024-01-18T19:06:18.247Z,28.25
2024-01-18T19:09:20.523Z,29.65
2024-01-18T19:12:22.759Z,28.02
2024-01-18T19:15:25.075Z,30.90
2024-01-18T19:18:28.980Z,32.38
2024-01-18T19:21:31.429Z,33.63
2024-01-18T19:24:33.731Z,30.95
2024-01-18T19:27:36.116Z,31.95
2024-01-18T19:30:38.530Z,29.60
2024-01-18T19:33:42.275Z,34.35
2024-01-18T19:36:45.224Z,30.65
2024-01-18T19:39:48.388Z,34.95
2024-01-18T19:42:50.608Z,30.75
2024-01-18T19:45:59.967Z,27.52
2024-01-18T19:49:05.834Z,37.92
2024-01-18T19:52:09.294Z,29.33
2024-01-18T19:55:11.728Z,32.08
2024-01-18T19:58:14.267Z,29.50
2024-01-18T20:01:19.670Z,29.70
2024-01-18T20:04:23.261Z,32.80
2024-01-18T20:07:25.658Z,29.73
2024-01-18T20:10:28.705Z,33.33
2024-01-18T20:13:31.008Z,28.52
2024-01-18T20:16:33.309Z,25.80
2024-01-18T20:19:36.989Z,26.35
2024-01-18T20:22:39.470Z,28.52
2024-01-18T20:25:41.951Z,24.80
2024-01-18T20:28:46.893Z,29.55
2024-01-18T20:31:50.170Z,24.67
2024-01-18T20:34:53.797Z,34.33
2024-01-18T20:37:58.385Z,37.05
2024-01-18T20:41:00.857Z,33.13
2024-01-18T20:44:03.138Z,29.08
2024-01-18T20:47:05.668Z,24.88
2024-01-18T20:50:11.963Z,27.98
2024-01-18T20:53:14.319Z,34.67
2024-01-18T20:56:16.866Z,35.03
2024-01-18T20:59:19.253Z,33.28
2024-01-18T21:02:21.587Z,31.38
2024-01-18T21:05:25.611Z,27.83
2024-01-18T21:08:27.915Z,27.40
2024-01-18T21:11:30.437Z,27.98
2024-01-18T21:14:32.800Z,27.73
2024-01-18T21:17:39.048Z,30.60
2024-01-18T21:20:44.168Z,27.42
2024-01-18T21:23:46.599Z,28.70
2024-01-18T21:26:49.311Z,32.33
2024-01-18T21:29:51.690Z,31.98
2024-01-18T21:32:54.055Z,29.63
2024-01-18T21:35:57.679Z,31.13
2024-01-18T21:39:00.234Z,27.50
2024-01-18T21:42:03.790Z,34.53
2024-01-18T21:45:07.255Z,31.52
2024-01-18T21:48:10.047Z,33.45
2024-01-18T21:51:14.940Z,31.83
2024-01-18T21:54:20.152Z,35.80
2024-01-18T21:57:22.814Z,28.65
2024-01-18T22:00:25.302Z,31.55
2024-01-18T22:03:28.384Z,28.00
2024-01-18T22:06:32.342Z,33.55
2024-01-18T22:09:41.584Z,31.00
2024-01-18T22:12:45.132Z,34.15
2024-01-18T22:15:47.476Z,36.30
2024-01-18T22:18:49.995Z,34.10
2024-01-18T22:21:53.605Z,41.42
2024-01-18T22:24:58.752Z,35.08
2024-01-18T22:28:02.621Z,40.53
2024-01-18T22:31:05.156Z,38.28
2024-01-18T22:34:07.552Z,40.20
2024-01-18T22:37:11.305Z,42.92
2024-01-18T22:40:14.191Z,35.78
2024-01-18T22:43:16.438Z,41.17
2024-01-18T22:46:18.757Z,36.15
2024-01-18T22:49:21.106Z,41.85
2024-01-18T22:52:24.828Z,37.60
2024-01-18T22:55:27.080Z,42.40
2024-01-18T22:58:31.518Z,35.95
2024-01-18T23:01:33.813Z,39.33
2024-01-18T23:04:36.218Z,36.25
2024-01-18T23:07:39.895Z,38.42
2024-01-18T23:10:42.197Z,38.13
2024-01-18T23:13:44.602Z,36.83
2024-01-18T23:16:46.863Z,38.35
2024-01-18T23:19:49.325Z,42.15
2024-01-18T23:22:53.021Z,38.40
2024-01-18T23:25:58.682Z,44.28
2024-01-18T23:29:01.106Z,45.55
2024-01-18T23:32:03.503Z,43.38
2024-01-18T23:35:06.505Z,39.33
2024-01-18T23:38:10.122Z,44.10
2024-01-18T23:41:12.685Z,49.42
2024-01-18T23:44:15.219Z,52.15
2024-01-18T23:47:17.492Z,45.47
2024-01-18T23:50:19.897Z,54.38
2024-01-18T23:53:29.382Z,54.25
2024-01-18T23:56:33.336Z,55.80
2024-01-18T23:59:35.820Z,56.38
